createdAt,value
2022-09-07T00:00:43.267Z,8.38
2022-09-07T00:03:13.929Z,9.07
2022-09-07T00:08:24.459Z,8.88
2022-09-07T00:10:56.716Z,8.48
2022-09-07T00:13:29.779Z,7.90
2022-09-07T00:16:00.780Z,8.52
2022-09-07T00:18:31.552Z,8.00
2022-09-07T00:21:07.990Z,9.35
2022-09-07T00:23:40.200Z,8.65
2022-09-07T00:26:13.988Z,8.73
2022-09-07T00:28:44.483Z,9.35
2022-09-07T00:31:17.471Z,9.00
2022-09-07T00:33:49.231Z,8.43
2022-09-07T00:36:23.893Z,9.43
2022-09-07T00:38:54.686Z,9.15
2022-09-07T00:43:58.436Z,8.50
2022-09-07T00:46:32.119Z,8.98
2022-09-07T00:49:08.217Z,8.75
2022-09-07T00:51:46.389Z,8.88
2022-09-07T00:54:21.308Z,8.82
2022-09-07T00:56:54.711Z,8.70
2022-09-07T00:59:29.916Z,8.20
2022-09-07T01:02:00.398Z,8.57
2022-09-07T01:04:33.065Z,8.57
2022-09-07T01:07:06.738Z,8.43
2022-09-07T01:09:37.522Z,8.88
2022-09-07T01:14:42.279Z,8.90
2022-09-07T01:17:20.268Z,8.45
2022-09-07T01:20:59.332Z,9.27
2022-09-07T01:24:29.938Z,8.52
2022-09-07T01:27:43.322Z,8.55
2022-09-07T01:30:16.594Z,8.82
2022-09-07T01:33:02.712Z,8.32
2022-09-07T01:35:43.901Z,8.13
2022-09-07T01:38:21.736Z,7.78
2022-09-07T01:41:01.030Z,7.53
2022-09-07T01:43:46.824Z,8.48
2022-09-07T01:46:23.765Z,8.75
2022-09-07T01:48:56.247Z,8.25
2022-09-07T01:51:33.877Z,7.85
2022-09-07T01:54:14.090Z,7.82
2022-09-07T01:56:48.310Z,8.00
2022-09-07T01:59:27.819Z,7.90
2022-09-07T02:02:05.130Z,7.57
2022-09-07T02:04:40.639Z,7.63
2022-09-07T02:07:20.621Z,7.10
2022-09-07T02:09:59.844Z,6.38
2022-09-07T02:12:38.609Z,6.68
2022-09-07T02:15:17.551Z,7.13
2022-09-07T02:17:52.803Z,6.97
2022-09-07T02:20:31.299Z,7.40
2022-09-07T02:23:05.991Z,6.88
2022-09-07T02:25:40.703Z,6.80
2022-09-07T02:28:14.607Z,7.10
2022-09-07T02:30:47.717Z,6.47
2022-09-07T02:33:18.191Z,7.15
2022-09-07T02:35:48.939Z,7.00
2022-09-07T02:40:54.995Z,7.50
2022-09-07T02:43:26.958Z,6.97
2022-09-07T02:46:22.216Z,6.78
2022-09-07T02:49:06.618Z,6.82
2022-09-07T02:51:47.708Z,6.95
2022-09-07T02:54:32.425Z,7.10
2022-09-07T02:57:13.629Z,6.82
2022-09-07T02:59:57.117Z,6.20
2022-09-07T03:02:38.539Z,6.65
2022-09-07T03:05:20.929Z,6.50
2022-09-07T03:07:58.821Z,6.60
2022-09-07T03:10:30.398Z,6.78
2022-09-07T03:13:00.736Z,8.40
2022-09-07T03:15:31.231Z,7.75
2022-09-07T03:18:04.118Z,6.72
2022-09-07T03:20:34.380Z,5.90
2022-09-07T03:23:04.557Z,6.22
2022-09-07T03:25:34.841Z,6.25
2022-09-07T03:28:05.635Z,6.88
2022-09-07T03:33:08.614Z,6.33
2022-09-07T03:35:38.946Z,6.57
2022-09-07T03:38:09.081Z,7.10
2022-09-07T03:40:39.346Z,7.03
2022-09-07T03:43:09.662Z,6.72
2022-09-07T03:45:39.932Z,7.13
2022-09-07T03:48:12.798Z,6.50
2022-09-07T03:50:42.962Z,6.72
2022-09-07T03:53:13.112Z,6.38
2022-09-07T03:55:43.342Z,6.57
2022-09-07T03:58:13.690Z,8.40
2022-09-07T04:00:44.375Z,7.95
2022-09-07T04:03:17.143Z,11.95
2022-09-07T04:05:47.487Z,9.07
2022-09-07T04:08:17.832Z,7.82
2022-09-07T04:10:48.150Z,7.72
2022-09-07T04:13:18.779Z,6.50
2022-09-07T04:15:53.301Z,6.78
2022-09-07T04:18:27.902Z,6.75
2022-09-07T04:21:01.970Z,6.57
2022-09-07T04:23:32.444Z,6.40
2022-09-07T04:26:02.677Z,7.82
2022-09-07T04:28:32.914Z,8.70
2022-09-07T04:31:04.752Z,7.95
2022-09-07T04:33:37.695Z,6.80
2022-09-07T04:36:08.587Z,7.18
2022-09-07T04:38:40.152Z,6.97
2022-09-07T04:41:13.103Z,6.28
2022-09-07T04:43:44.274Z,6.65
2022-09-07T04:46:21.930Z,6.70
2022-09-07T04:48:56.535Z,6.13
2022-09-07T04:51:29.452Z,6.57
2022-09-07T04:54:01.795Z,6.97
2022-09-07T04:56:33.217Z,6.72
2022-09-07T04:59:04.286Z,6.80
2022-09-07T05:01:34.891Z,7.18
2022-09-07T05:04:08.659Z,6.70
2022-09-07T05:06:39.020Z,7.10
2022-09-07T05:09:09.341Z,6.28
2022-09-07T05:11:39.769Z,6.97
2022-09-07T05:14:10.026Z,6.20
2022-09-07T05:16:40.294Z,6.40
2022-09-07T05:19:16.098Z,7.05
2022-09-07T05:21:46.312Z,6.32
2022-09-07T05:24:16.846Z,11.02
2022-09-07T05:26:47.158Z,12.00
2022-09-07T05:32:08.385Z,6.28
2022-09-07T05:34:41.144Z,7.00
2022-09-07T05:37:11.874Z,8.35
2022-09-07T05:42:12.098Z,6.75
2022-09-07T05:47:32.736Z,7.15
2022-09-07T05:50:05.532Z,9.57
2022-09-07T05:52:35.764Z,9.73
2022-09-07T05:55:28.664Z,7.45
2022-09-07T06:00:26.717Z,6.57
2022-09-07T06:02:56.921Z,6.97
2022-09-07T06:05:29.797Z,6.78
2022-09-07T06:08:00.070Z,6.22
2022-09-07T06:10:46.635Z,6.05
2022-09-07T06:13:16.875Z,6.10
2022-09-07T06:15:47.158Z,6.32
2022-09-07T06:18:17.428Z,6.47
2022-09-07T06:20:50.243Z,6.32
2022-09-07T06:23:20.468Z,7.53
2022-09-07T06:25:53.934Z,5.90
2022-09-07T06:28:30.559Z,5.93
2022-09-07T06:31:04.027Z,5.75
2022-09-07T06:33:34.962Z,5.88
2022-09-07T06:36:10.337Z,5.68
2022-09-07T06:38:41.910Z,5.32
2022-09-07T06:44:08.151Z,5.43
2022-09-07T06:49:29.168Z,5.93
2022-09-07T06:52:03.346Z,5.55
2022-09-07T06:57:23.837Z,5.57
2022-09-07T06:59:54.007Z,5.30
2022-09-07T07:02:24.235Z,5.60
2022-09-07T07:04:54.383Z,5.38
2022-09-07T07:07:27.229Z,5.18
2022-09-07T07:09:57.412Z,5.40
2022-09-07T07:14:56.714Z,4.82
2022-09-07T07:19:57.730Z,4.95
2022-09-07T07:22:46.219Z,5.53
2022-09-07T07:25:17.955Z,5.03
2022-09-07T07:27:48.987Z,5.20
2022-09-07T07:30:21.157Z,5.22
2022-09-07T07:32:51.860Z,4.88
2022-09-07T07:35:22.131Z,4.90
2022-09-07T07:43:36.237Z,4.97
2022-09-07T07:46:07.221Z,4.55
2022-09-07T07:48:38.765Z,5.50
2022-09-07T07:51:12.286Z,5.20
2022-09-07T07:53:46.166Z,22.75
2022-09-07T07:56:17.222Z,8.43
2022-09-07T07:58:49.352Z,5.88
2022-09-07T08:01:20.728Z,5.05
2022-09-07T08:03:51.000Z,5.68
2022-09-07T08:06:23.569Z,5.20
2022-09-07T08:08:56.365Z,5.13
2022-09-07T08:11:26.526Z,4.78
2022-09-07T08:14:00.292Z,4.53
2022-09-07T08:16:30.487Z,4.43
2022-09-07T08:19:01.232Z,4.47
2022-09-07T08:21:31.340Z,4.30
2022-09-07T08:24:04.247Z,4.90
2022-09-07T08:26:34.517Z,4.55
2022-09-07T08:29:04.609Z,4.78
2022-09-07T08:34:04.753Z,4.10
2022-09-07T08:36:34.798Z,5.13
2022-09-07T08:41:55.677Z,4.95
2022-09-07T08:44:31.422Z,5.95
2022-09-07T08:47:05.622Z,4.70
2022-09-07T08:49:47.319Z,19.13
2022-09-07T08:52:23.089Z,27.85
2022-09-07T08:55:14.627Z,5.85
2022-09-07T08:57:50.599Z,6.15
2022-09-07T09:00:22.618Z,5.50
2022-09-07T09:05:55.761Z,5.57
2022-09-07T09:08:43.789Z,5.00
2022-09-07T09:11:27.654Z,5.63
2022-09-07T09:14:05.357Z,6.78
2022-09-07T09:16:42.941Z,5.35
2022-09-07T09:19:39.604Z,5.22
2022-09-07T09:22:16.364Z,5.18
2022-09-07T09:24:51.320Z,5.05
2022-09-07T09:27:24.137Z,5.97
2022-09-07T09:29:54.278Z,6.50
2022-09-07T09:32:37.926Z,5.32
2022-09-07T09:35:17.512Z,5.13
2022-09-07T09:37:48.045Z,5.10
2022-09-07T09:40:25.616Z,4.40
2022-09-07T09:43:07.954Z,4.82
2022-09-07T09:48:36.778Z,4.10
2022-09-07T09:54:06.119Z,9.75
2022-09-07T09:56:44.951Z,4.20
2022-09-07T10:05:32.933Z,4.68
2022-09-07T10:08:03.755Z,4.25
2022-09-07T10:10:34.383Z,3.90
2022-09-07T10:13:04.557Z,3.95
2022-09-07T10:15:41.042Z,3.80
2022-09-07T10:18:22.278Z,4.05
2022-09-07T10:20:52.341Z,4.10
2022-09-07T10:23:26.090Z,4.13
2022-09-07T10:25:57.000Z,4.38
2022-09-07T10:29:06.525Z,4.20
2022-09-07T10:31:30.458Z,4.28
2022-09-07T10:37:08.544Z,3.83
2022-09-07T10:39:40.983Z,3.85
2022-09-07T10:42:29.398Z,4.07
2022-09-07T10:45:15.226Z,4.43
2022-09-07T10:48:01.193Z,3.80
2022-09-07T10:50:39.980Z,3.85
2022-09-07T10:53:44.639Z,10.17
2022-09-07T10:56:22.765Z,3.30
2022-09-07T10:59:06.300Z,3.50
2022-09-07T11:01:53.042Z,3.88
2022-09-07T11:04:49.312Z,3.17
2022-09-07T11:07:47.302Z,3.60
2022-09-07T11:10:30.344Z,3.30
2022-09-07T11:13:05.604Z,3.03
2022-09-07T11:15:39.872Z,3.30
2022-09-07T11:18:18.035Z,2.80
2022-09-07T11:20:55.680Z,2.80
2022-09-07T11:23:32.668Z,2.53
2022-09-07T11:26:12.038Z,3.33
2022-09-07T11:31:27.386Z,2.90
2022-09-07T11:37:06.234Z,2.80
2022-09-07T11:39:43.512Z,2.92
2022-09-07T11:45:20.085Z,2.90
2022-09-07T11:47:56.302Z,3.08
2022-09-07T11:50:27.831Z,3.08
2022-09-07T11:53:06.676Z,2.45
2022-09-07T11:55:41.272Z,3.20
2022-09-07T11:58:52.261Z,3.08
2022-09-07T12:01:36.974Z,2.78
2022-09-07T12:04:32.886Z,3.40
2022-09-07T12:07:34.720Z,2.90
2022-09-07T12:10:36.820Z,2.83
2022-09-07T12:13:44.307Z,2.88
2022-09-07T12:16:25.223Z,2.60
2022-09-07T12:19:20.695Z,2.80
2022-09-07T12:21:58.882Z,3.40
2022-09-07T12:24:54.145Z,3.30
2022-09-07T12:27:44.986Z,3.35
2022-09-07T12:31:04.539Z,3.60
2022-09-07T12:33:38.522Z,3.78
2022-09-07T12:36:52.356Z,3.15
2022-09-07T12:39:28.616Z,2.90
2022-09-07T12:42:32.887Z,3.25
2022-09-07T12:45:48.043Z,3.40
2022-09-07T12:48:43.641Z,3.30
2022-09-07T12:54:23.311Z,3.30
2022-09-07T13:00:08.464Z,3.58
2022-09-07T13:06:18.983Z,3.50
2022-09-07T13:09:18.402Z,3.40
2022-09-07T13:11:48.655Z,3.10
2022-09-07T13:14:27.286Z,4.03
2022-09-07T13:17:44.947Z,3.35
2022-09-07T13:20:30.266Z,2.92
2022-09-07T13:23:31.384Z,2.55
2022-09-07T13:26:03.620Z,2.67
2022-09-07T13:28:50.726Z,2.30
2022-09-07T13:31:42.216Z,2.45
2022-09-07T13:34:40.576Z,2.20
2022-09-07T13:37:20.031Z,2.50
2022-09-07T13:39:56.667Z,2.25
2022-09-07T13:42:30.868Z,2.78
2022-09-07T13:45:04.326Z,2.88
2022-09-07T13:47:51.218Z,2.60
2022-09-07T13:50:35.331Z,2.50
2022-09-07T13:53:46.670Z,2.60
2022-09-07T13:56:36.951Z,2.60
2022-09-07T13:59:21.645Z,2.30
2022-09-07T14:01:53.692Z,2.35
2022-09-07T14:04:28.821Z,2.45
2022-09-07T14:07:09.993Z,2.60
2022-09-07T14:09:40.058Z,2.40
2022-09-07T14:12:20.704Z,2.67
2022-09-07T14:15:10.751Z,2.83
2022-09-07T14:17:40.931Z,2.40
2022-09-07T14:20:17.090Z,2.60
2022-09-07T14:22:53.028Z,2.33
2022-09-07T14:25:26.057Z,2.50
2022-09-07T14:28:00.918Z,2.40
2022-09-07T14:30:34.064Z,2.28
2022-09-07T14:33:07.089Z,2.40
2022-09-07T14:35:40.945Z,2.83
2022-09-07T14:41:21.806Z,2.20
2022-09-07T14:44:00.214Z,2.50
2022-09-07T14:49:07.943Z,2.60
2022-09-07T14:51:38.410Z,2.08
2022-09-07T14:54:10.670Z,2.50
2022-09-07T14:56:43.777Z,2.00
2022-09-07T14:59:39.555Z,2.00
2022-09-07T15:02:37.751Z,1.88
2022-09-07T15:05:29.380Z,2.33
2022-09-07T15:08:01.647Z,2.60
2022-09-07T15:10:38.313Z,2.22
2022-09-07T15:13:26.051Z,2.00
2022-09-07T15:16:05.656Z,2.55
2022-09-07T15:18:54.694Z,2.53
2022-09-07T15:21:27.312Z,2.20
2022-09-07T15:23:59.709Z,2.70
2022-09-07T15:29:25.110Z,2.50
2022-09-07T15:32:03.923Z,2.10
2022-09-07T15:34:34.942Z,2.67
2022-09-07T15:38:00.945Z,2.40
2022-09-07T15:39:55.385Z,2.53
2022-09-07T15:45:16.224Z,2.40
2022-09-07T15:47:53.638Z,1.70
2022-09-07T15:50:24.384Z,1.77
2022-09-07T15:52:55.234Z,1.80
2022-09-07T15:55:25.440Z,2.17
2022-09-07T15:58:09.092Z,2.00
2022-09-07T16:00:42.128Z,2.33
2022-09-07T16:03:15.378Z,2.33
2022-09-07T16:05:46.406Z,2.17
2022-09-07T16:08:25.348Z,2.08
2022-09-07T16:11:04.682Z,2.40
2022-09-07T16:13:35.948Z,2.90
2022-09-07T16:18:46.595Z,2.40
2022-09-07T16:21:18.831Z,3.33
2022-09-07T16:23:53.043Z,4.05
2022-09-07T16:26:25.958Z,6.90
2022-09-07T16:28:56.843Z,9.55
2022-09-07T16:31:31.174Z,10.55
2022-09-07T16:34:04.991Z,10.80
2022-09-07T16:36:35.039Z,20.35
2022-09-07T16:39:05.146Z,22.73
2022-09-07T16:44:06.221Z,13.73
2022-09-07T16:46:36.934Z,12.93
2022-09-07T16:49:09.940Z,12.82
2022-09-07T16:51:40.794Z,12.85
2022-09-07T16:54:15.810Z,13.98
2022-09-07T16:56:46.036Z,13.85
2022-09-07T17:01:51.147Z,32.15
2022-09-07T17:04:23.958Z,27.33
2022-09-07T17:06:54.763Z,10.95
2022-09-07T17:09:26.866Z,12.13
2022-09-07T17:11:57.060Z,11.90
2022-09-07T17:14:28.356Z,10.80
2022-09-07T17:16:58.785Z,11.35
2022-09-07T17:19:31.754Z,11.07
2022-09-07T17:22:07.193Z,15.38
2022-09-07T17:24:39.669Z,15.75
2022-09-07T17:27:09.801Z,11.93
2022-09-07T17:29:40.499Z,11.15
2022-09-07T17:32:26.316Z,9.90
2022-09-07T17:35:00.580Z,9.15
2022-09-07T17:37:30.657Z,8.70
2022-09-07T17:40:01.268Z,7.60
2022-09-07T17:45:27.736Z,8.38
2022-09-07T17:47:58.142Z,8.35
2022-09-07T17:50:31.733Z,9.13
2022-09-07T17:53:02.130Z,8.82
2022-09-07T17:55:32.878Z,8.85
2022-09-07T17:58:04.725Z,8.32
2022-09-07T18:00:34.981Z,8.93
2022-09-07T18:03:05.570Z,8.77
2022-09-07T18:05:39.245Z,8.73
2022-09-07T18:08:10.895Z,9.00
2022-09-07T18:16:14.357Z,19.40
2022-09-07T18:18:44.766Z,8.82
2022-09-07T18:21:21.614Z,8.52
2022-09-07T18:23:56.299Z,8.00
2022-09-07T18:26:28.448Z,7.40
2022-09-07T18:29:18.933Z,7.70
2022-09-07T18:31:50.936Z,7.78
2022-09-07T18:34:21.444Z,7.63
2022-09-07T18:36:55.224Z,7.78
2022-09-07T18:39:26.332Z,8.45
2022-09-07T18:41:58.147Z,7.65
2022-09-07T18:47:28.062Z,10.35
2022-09-07T18:50:00.315Z,14.52
2022-09-07T18:55:24.355Z,7.55
2022-09-07T18:57:55.739Z,7.57
2022-09-07T19:00:26.296Z,7.53
2022-09-07T19:02:56.703Z,7.00
2022-09-07T19:08:22.027Z,7.57
2022-09-07T19:10:52.882Z,8.00
2022-09-07T19:13:23.235Z,7.78
2022-09-07T19:15:53.814Z,7.43
2022-09-07T19:18:24.434Z,7.80
2022-09-07T19:20:55.144Z,7.30
2022-09-07T19:23:29.259Z,7.60
2022-09-07T19:26:02.300Z,8.07
2022-09-07T19:28:33.152Z,7.82
2022-09-07T19:31:06.368Z,6.95
2022-09-07T19:33:38.076Z,7.63
2022-09-07T19:36:10.349Z,7.00
2022-09-07T19:38:43.630Z,7.57
2022-09-07T19:41:16.300Z,7.15
2022-09-07T19:43:49.172Z,7.50
2022-09-07T19:46:24.816Z,7.25
2022-09-07T19:48:55.808Z,7.03
2022-09-07T19:51:26.730Z,6.65
2022-09-07T19:54:00.084Z,6.95
2022-09-07T19:56:31.370Z,6.85
2022-09-07T19:59:01.869Z,7.45
2022-09-07T20:04:05.438Z,7.30
2022-09-07T20:06:37.637Z,8.95
2022-09-07T20:09:10.941Z,7.10
2022-09-07T20:11:46.010Z,6.72
2022-09-07T20:14:17.676Z,7.10
2022-09-07T20:16:48.249Z,6.97
2022-09-07T20:19:18.713Z,6.97
2022-09-07T20:21:49.139Z,6.75
2022-09-07T20:26:53.425Z,6.25
2022-09-07T20:32:00.619Z,6.80
2022-09-07T20:34:32.293Z,6.28
2022-09-07T20:37:02.790Z,6.65
2022-09-07T20:42:10.810Z,6.20
2022-09-07T20:44:41.104Z,6.13
2022-09-07T20:47:11.535Z,6.20
2022-09-07T20:52:12.195Z,7.82
2022-09-07T20:54:45.148Z,6.97
2022-09-07T20:57:15.489Z,7.25
2022-09-07T20:59:45.777Z,7.22
2022-09-07T21:02:16.142Z,6.55
2022-09-07T21:04:46.618Z,6.18
2022-09-07T21:07:16.944Z,5.95
2022-09-07T21:09:50.026Z,6.38
2022-09-07T21:12:20.350Z,5.68
2022-09-07T21:14:50.692Z,6.80
2022-09-07T21:17:21.287Z,6.07
2022-09-07T21:22:22.227Z,6.00
2022-09-07T21:24:55.137Z,5.60
2022-09-07T21:27:25.859Z,6.20
2022-09-07T21:29:56.191Z,6.22
2022-09-07T21:32:26.654Z,6.05
2022-09-07T21:37:27.195Z,5.70
2022-09-07T21:40:03.224Z,5.65
2022-09-07T21:42:33.666Z,5.47
2022-09-07T21:45:04.072Z,5.82
2022-09-07T21:47:34.378Z,5.97
2022-09-07T21:50:05.124Z,5.15
2022-09-07T21:52:35.628Z,4.90
2022-09-07T21:57:40.422Z,4.60
2022-09-07T22:00:12.651Z,4.80
2022-09-07T22:02:43.092Z,5.03
2022-09-07T22:05:13.380Z,5.93
2022-09-07T22:07:43.830Z,5.20
2022-09-07T22:10:16.815Z,5.57
2022-09-07T22:12:47.237Z,4.63
2022-09-07T22:15:17.972Z,5.28
2022-09-07T22:17:48.259Z,5.13
2022-09-07T22:20:18.776Z,4.82
2022-09-07T22:25:21.768Z,4.67
2022-09-07T22:27:52.190Z,5.05
2022-09-07T22:30:22.903Z,4.57
2022-09-07T22:32:54.743Z,4.10
2022-09-07T22:35:27.868Z,4.93
2022-09-07T22:37:59.697Z,4.50
2022-09-07T22:40:32.857Z,4.95
2022-09-07T22:43:03.159Z,4.75
2022-09-07T22:45:33.573Z,4.38
2022-09-07T22:50:35.815Z,4.87
2022-09-07T22:53:06.180Z,4.80
2022-09-07T22:55:41.553Z,4.47
2022-09-07T22:58:12.112Z,4.65
2022-09-07T23:00:44.746Z,4.60
2022-09-07T23:03:15.257Z,4.75
2022-09-07T23:08:16.201Z,4.63
2022-09-07T23:10:49.271Z,5.25
2022-09-07T23:13:19.780Z,4.80
2022-09-07T23:15:51.243Z,4.15
2022-09-07T23:18:24.494Z,4.47
2022-09-07T23:20:59.759Z,4.35
2022-09-07T23:23:31.797Z,4.65
2022-09-07T23:26:07.694Z,4.65
2022-09-07T23:28:38.354Z,5.00
2022-09-07T23:33:39.551Z,4.20
2022-09-07T23:36:10.966Z,4.70
2022-09-07T23:38:41.416Z,4.10
2022-09-07T23:41:15.311Z,4.20
2022-09-07T23:43:45.886Z,4.85
2022-09-07T23:51:23.481Z,4.05
2022-09-07T23:53:54.918Z,4.35
2022-09-07T23:56:28.165Z,4.53
2022-09-07T23:58:58.740Z,4.00
